Time;durP1;ratioP1;P1;durP2;ratioP2;P2;SDS_P1;SDS_P2;PMS_P1;PMS_P2;Temp;Humidity;BMP_temperature;BMP_pressure;BME280_temperature;BME280_humidity;BME280_pressure;Samples;Min_cycle;Max_cycle;Signal;HPM_P1;HPM_P2
2023/08/20 00:02:19;;;;;;;6.70;6.10;;;;;;;;;;5062093;28;20065;-71
2023/08/20 00:04:46;;;;;;;6.95;6.22;;;;;;;;;;5060696;28;20304;-68
2023/08/20 00:07:12;;;;;;;7.82;6.70;;;;;;;;;;5060016;28;20087;-70
2023/08/20 00:09:37;;;;;;;6.88;6.18;;;;;;;;;;5044886;28;20511;-71
2023/08/20 00:12:05;;;;;;;6.80;6.15;;;;;;;;;;5062106;28;20446;-70
2023/08/20 00:14:49;;;;;;;7.13;6.25;;;;;;;;;;5062987;28;20024;-69
2023/08/20 00:17:14;;;;;;;6.70;6.05;;;;;;;;;;5062097;28;20028;-70
2023/08/20 00:19:40;;;;;;;6.88;6.28;;;;;;;;;;5045252;28;20069;-71
2023/08/20 00:22:05;;;;;;;7.07;6.47;;;;;;;;;;5047947;28;20028;-71
2023/08/20 00:24:31;;;;;;;8.43;5.68;;;;;;;;;;5062060;28;20103;-71
2023/08/20 00:26:56;;;;;;;7.88;6.10;;;;;;;;;;5067005;28;20044;-69
2023/08/20 00:29:22;;;;;;;6.63;6.05;;;;;;;;;;5064743;28;20025;-70
2023/08/20 00:31:48;;;;;;;7.03;6.32;;;;;;;;;;5064916;28;20028;-71
2023/08/20 00:34:13;;;;;;;8.75;6.22;;;;;;;;;;5048611;28;20029;-70
2023/08/20 00:36:39;;;;;;;7.32;5.80;;;;;;;;;;5065623;28;20027;-70
2023/08/20 00:39:04;;;;;;;6.70;6.10;;;;;;;;;;5065825;28;20024;-70
2023/08/20 00:41:30;;;;;;;7.80;6.28;;;;;;;;;;5045181;28;20027;-71
2023/08/20 00:43:55;;;;;;;6.90;6.20;;;;;;;;;;5064597;28;20039;-71
2023/08/20 00:46:20;;;;;;;8.07;5.90;;;;;;;;;;5063078;28;20056;-71
2023/08/20 00:48:46;;;;;;;6.68;6.07;;;;;;;;;;5064993;28;20408;-70
2023/08/20 00:51:11;;;;;;;7.28;6.45;;;;;;;;;;5066008;28;20520;-71
2023/08/20 00:53:37;;;;;;;6.93;6.13;;;;;;;;;;5064006;28;20023;-70
2023/08/20 00:56:02;;;;;;;6.65;6.13;;;;;;;;;;5065933;28;20024;-70
2023/08/20 00:58:28;;;;;;;7.63;6.35;;;;;;;;;;5063404;28;20055;-71
2023/08/20 01:00:53;;;;;;;7.03;6.32;;;;;;;;;;5065246;28;20020;-69
2023/08/20 01:03:19;;;;;;;6.90;6.30;;;;;;;;;;5064881;28;20035;-68
2023/08/20 01:05:50;;;;;;;6.53;5.82;;;;;;;;;;5064783;28;20024;-68
2023/08/20 01:08:15;;;;;;;6.13;5.60;;;;;;;;;;5064938;28;20118;-69
2023/08/20 01:10:51;;;;;;;6.95;6.35;;;;;;;;;;5062643;28;20103;-71
2023/08/20 01:13:16;;;;;;;7.35;6.10;;;;;;;;;;5063430;28;20081;-71
2023/08/20 01:15:42;;;;;;;7.00;6.13;;;;;;;;;;5063991;28;20028;-69
2023/08/20 01:18:07;;;;;;;6.43;5.82;;;;;;;;;;5063304;28;20158;-68
2023/08/20 01:20:35;;;;;;;7.10;6.40;;;;;;;;;;5064815;28;20042;-68
2023/08/20 01:23:16;;;;;;;6.80;6.20;;;;;;;;;;5064969;28;20096;-70
2023/08/20 01:25:57;;;;;;;6.22;5.57;;;;;;;;;;5064964;28;20035;-70
2023/08/20 01:28:25;;;;;;;8.07;6.13;;;;;;;;;;5063706;28;20019;-70
2023/08/20 01:30:52;;;;;;;6.63;6.03;;;;;;;;;;5063033;28;20085;-69
2023/08/20 01:33:20;;;;;;;8.25;5.90;;;;;;;;;;5064867;28;20059;-70
2023/08/20 01:35:45;;;;;;;6.82;6.22;;;;;;;;;;5064290;28;20024;-72
2023/08/20 01:38:11;;;;;;;7.72;6.28;;;;;;;;;;5063619;28;20418;-71
2023/08/20 01:40:36;;;;;;;6.03;5.53;;;;;;;;;;5062677;28;20023;-72
2023/08/20 01:43:02;;;;;;;6.75;6.15;;;;;;;;;;5063116;28;20389;-67
2023/08/20 01:45:28;;;;;;;6.55;5.95;;;;;;;;;;5063365;28;20056;-72
2023/08/20 01:47:53;;;;;;;6.68;6.10;;;;;;;;;;5063118;28;20039;-68
2023/08/20 01:50:18;;;;;;;8.13;5.60;;;;;;;;;;5063744;28;20522;-70
2023/08/20 01:52:44;;;;;;;6.82;6.13;;;;;;;;;;5064956;28;20515;-70
2023/08/20 01:55:10;;;;;;;7.05;6.25;;;;;;;;;;5064236;28;20450;-70
2023/08/20 01:57:35;;;;;;;7.93;5.80;;;;;;;;;;5063851;28;20113;-70
2023/08/20 02:00:01;;;;;;;6.68;6.07;;;;;;;;;;5064012;28;20093;-70
2023/08/20 02:02:26;;;;;;;8.43;6.15;;;;;;;;;;5061914;28;20119;-68
2023/08/20 02:04:51;;;;;;;9.13;5.88;;;;;;;;;;5062492;28;20683;-72
2023/08/20 02:07:17;;;;;;;8.07;6.03;;;;;;;;;;5063711;28;20031;-70
2023/08/20 02:09:42;;;;;;;6.85;6.13;;;;;;;;;;5062969;28;20024;-71
2023/08/20 02:12:08;;;;;;;7.57;6.28;;;;;;;;;;5046200;28;20032;-70
2023/08/20 02:14:34;;;;;;;6.93;6.22;;;;;;;;;;5061384;28;20047;-70
2023/08/20 02:17:00;;;;;;;7.43;6.65;;;;;;;;;;5074780;28;20047;-69
2023/08/20 02:19:26;;;;;;;7.28;6.57;;;;;;;;;;5068161;28;20339;-69
2023/08/20 02:21:52;;;;;;;11.80;6.57;;;;;;;;;;5071872;28;20035;-70
2023/08/20 02:24:17;;;;;;;9.68;6.53;;;;;;;;;;5073503;28;20343;-69
2023/08/20 02:26:43;;;;;;;12.43;7.15;;;;;;;;;;5072381;28;20089;-69
2023/08/20 02:29:08;;;;;;;6.80;6.20;;;;;;;;;;5074152;28;20147;-69
2023/08/20 02:31:33;;;;;;;9.18;6.65;;;;;;;;;;5073336;28;20024;-69
2023/08/20 02:33:59;;;;;;;7.82;5.78;;;;;;;;;;5071041;28;20030;-68
2023/08/20 02:36:25;;;;;;;9.18;6.60;;;;;;;;;;5067288;28;20031;-70
2023/08/20 02:38:50;;;;;;;7.78;6.38;;;;;;;;;;5072846;28;20085;-70
2023/08/20 02:41:15;;;;;;;7.97;6.38;;;;;;;;;;5072786;28;20028;-70
2023/08/20 02:43:41;;;;;;;7.60;6.55;;;;;;;;;;5074157;28;20028;-69
2023/08/20 02:46:06;;;;;;;6.95;6.20;;;;;;;;;;5073083;28;20052;-70
2023/08/20 02:48:32;;;;;;;8.80;6.13;;;;;;;;;;5072133;28;20043;-69
2023/08/20 02:50:57;;;;;;;6.95;6.25;;;;;;;;;;5065429;28;20032;-69
2023/08/20 02:53:22;;;;;;;7.15;6.55;;;;;;;;;;5074981;28;20024;-68
2023/08/20 02:55:48;;;;;;;8.90;6.45;;;;;;;;;;5072648;28;20027;-69
2023/08/20 02:58:13;;;;;;;6.70;6.10;;;;;;;;;;5066608;28;20040;-69
2023/08/20 03:00:39;;;;;;;8.05;6.50;;;;;;;;;;5062903;28;20054;-69
2023/08/20 03:03:08;;;;;;;6.68;5.90;;;;;;;;;;5070977;28;20078;-70
2023/08/20 03:05:33;;;;;;;8.15;6.55;;;;;;;;;;5057460;28;20035;-69
2023/08/20 03:07:59;;;;;;;6.03;5.45;;;;;;;;;;5071035;28;20451;-69
2023/08/20 03:10:26;;;;;;;7.35;6.75;;;;;;;;;;5072873;28;20031;-69
2023/08/20 03:12:51;;;;;;;11.65;6.88;;;;;;;;;;5060300;28;20023;-72
2023/08/20 03:15:17;;;;;;;7.40;6.70;;;;;;;;;;5072036;28;20135;-69
2023/08/20 03:17:42;;;;;;;7.40;6.70;;;;;;;;;;5073275;28;20031;-71
2023/08/20 03:20:08;;;;;;;7.47;6.40;;;;;;;;;;5070219;28;20092;-70
2023/08/20 03:22:35;;;;;;;6.40;5.80;;;;;;;;;;5066509;28;20382;-71
2023/08/20 03:25:01;;;;;;;7.45;6.65;;;;;;;;;;5073215;28;20090;-68
2023/08/20 03:27:26;;;;;;;7.78;6.97;;;;;;;;;;5073202;28;20776;-69
2023/08/20 03:29:52;;;;;;;9.98;6.43;;;;;;;;;;5044130;28;20059;-68
2023/08/20 03:32:18;;;;;;;10.15;6.97;;;;;;;;;;5062141;28;20350;-70
2023/08/20 03:34:43;;;;;;;8.15;7.35;;;;;;;;;;5041294;28;20020;-70
2023/08/20 03:37:09;;;;;;;7.57;6.63;;;;;;;;;;5062570;28;20048;-70
2023/08/20 03:39:34;;;;;;;7.32;6.72;;;;;;;;;;5050977;28;20119;-72
2023/08/20 03:41:59;;;;;;;7.45;6.75;;;;;;;;;;5050713;28;21004;-70
2023/08/20 03:44:25;;;;;;;8.40;6.10;;;;;;;;;;5051837;28;20313;-69
2023/08/20 03:46:50;;;;;;;8.77;6.72;;;;;;;;;;5049743;28;20105;-70
2023/08/20 03:49:15;;;;;;;7.72;7.00;;;;;;;;;;5051164;28;20352;-70
2023/08/20 03:51:42;;;;;;;7.85;7.03;;;;;;;;;;5049375;28;20070;-70
2023/08/20 03:54:08;;;;;;;7.93;7.13;;;;;;;;;;5052007;28;20436;-69
2023/08/20 03:56:33;;;;;;;8.15;6.97;;;;;;;;;;5054263;28;20082;-69
2023/08/20 03:58:58;;;;;;;8.48;6.78;;;;;;;;;;5051661;28;20032;-68
2023/08/20 04:01:24;;;;;;;8.32;7.13;;;;;;;;;;5051854;28;20471;-71
2023/08/20 04:03:49;;;;;;;7.47;6.70;;;;;;;;;;5052542;28;20028;-72
2023/08/20 04:06:14;;;;;;;7.88;7.18;;;;;;;;;;5054296;28;20098;-70
2023/08/20 04:08:40;;;;;;;7.88;7.18;;;;;;;;;;5054409;28;20032;-71
2023/08/20 04:11:05;;;;;;;8.07;7.20;;;;;;;;;;5061657;28;20053;-69
2023/08/20 04:13:31;;;;;;;7.97;6.68;;;;;;;;;;5072828;28;20024;-68
2023/08/20 04:15:56;;;;;;;8.30;6.50;;;;;;;;;;5070918;28;20029;-71
2023/08/20 04:18:22;;;;;;;7.32;6.63;;;;;;;;;;5073186;28;20413;-71
2023/08/20 04:20:47;;;;;;;7.97;6.75;;;;;;;;;;5072171;28;20032;-72
2023/08/20 04:23:13;;;;;;;6.85;6.35;;;;;;;;;;5074838;28;20025;-69
2023/08/20 04:25:38;;;;;;;7.75;6.80;;;;;;;;;;5076062;28;20028;-71
2023/08/20 04:28:03;;;;;;;8.43;7.05;;;;;;;;;;5076146;28;20040;-71
2023/08/20 04:30:29;;;;;;;7.45;6.75;;;;;;;;;;5073563;28;20082;-70
2023/08/20 04:32:54;;;;;;;6.35;5.82;;;;;;;;;;5068075;28;20072;-70
2023/08/20 04:35:19;;;;;;;6.53;5.93;;;;;;;;;;5072681;28;20051;-70
2023/08/20 04:37:45;;;;;;;6.47;5.88;;;;;;;;;;5068070;28;20452;-71
2023/08/20 04:40:11;;;;;;;7.20;6.60;;;;;;;;;;5075365;28;20024;-70
2023/08/20 04:42:36;;;;;;;7.10;6.50;;;;;;;;;;5075540;28;20439;-70
2023/08/20 04:45:02;;;;;;;12.80;6.95;;;;;;;;;;5073479;28;20033;-69
2023/08/20 04:47:27;;;;;;;7.38;6.70;;;;;;;;;;5075517;28;20067;-71
2023/08/20 04:49:53;;;;;;;6.90;5.93;;;;;;;;;;5067678;28;20027;-68
2023/08/20 04:52:20;;;;;;;8.48;7.60;;;;;;;;;;5074448;28;20028;-70
2023/08/20 04:54:45;;;;;;;7.90;7.13;;;;;;;;;;5076859;28;20058;-69
2023/08/20 04:57:11;;;;;;;7.70;6.95;;;;;;;;;;5071829;28;20032;-73
2023/08/20 04:59:36;;;;;;;7.75;7.05;;;;;;;;;;5071452;28;20454;-69
2023/08/20 05:02:01;;;;;;;7.50;6.50;;;;;;;;;;5076680;28;20016;-71
2023/08/20 05:04:27;;;;;;;7.38;6.60;;;;;;;;;;5076360;28;20403;-69
2023/08/20 05:06:52;;;;;;;8.10;7.30;;;;;;;;;;5073076;28;20457;-71
2023/08/20 05:09:17;;;;;;;7.18;6.47;;;;;;;;;;5070439;28;20020;-71
2023/08/20 05:11:43;;;;;;;7.22;6.55;;;;;;;;;;5076189;28;20023;-71
2023/08/20 05:14:08;;;;;;;8.23;7.10;;;;;;;;;;5065370;28;20019;-70
2023/08/20 05:16:33;;;;;;;8.90;7.10;;;;;;;;;;5068252;28;20020;-71
2023/08/20 05:18:59;;;;;;;7.45;6.72;;;;;;;;;;5060697;28;22162;-71
2023/08/20 05:21:24;;;;;;;10.05;7.55;;;;;;;;;;5064241;28;20032;-69
2023/08/20 05:23:49;;;;;;;7.82;7.18;;;;;;;;;;5063350;28;20073;-71
2023/08/20 05:26:15;;;;;;;8.50;7.15;;;;;;;;;;5071672;28;20062;-72
2023/08/20 05:28:40;;;;;;;7.35;6.75;;;;;;;;;;5073136;28;20352;-71
2023/08/20 05:31:05;;;;;;;9.48;6.97;;;;;;;;;;5074284;28;20099;-71
2023/08/20 05:33:31;;;;;;;7.65;6.72;;;;;;;;;;5076271;28;20028;-72
2023/08/20 05:35:56;;;;;;;7.88;7.18;;;;;;;;;;5065222;28;20024;-70
2023/08/20 05:38:21;;;;;;;7.75;6.55;;;;;;;;;;5053885;28;20761;-72
2023/08/20 05:40:47;;;;;;;7.85;6.65;;;;;;;;;;5071038;28;20089;-71
2023/08/20 05:43:12;;;;;;;7.30;6.60;;;;;;;;;;5068776;28;20039;-72
2023/08/20 05:45:37;;;;;;;8.00;7.05;;;;;;;;;;5050906;28;20059;-72
2023/08/20 05:48:03;;;;;;;9.32;7.07;;;;;;;;;;5068895;28;20092;-71
2023/08/20 05:50:28;;;;;;;7.78;6.63;;;;;;;;;;5065113;28;20027;-70
2023/08/20 05:52:53;;;;;;;7.20;6.60;;;;;;;;;;5070091;28;20020;-70
2023/08/20 05:55:19;;;;;;;9.07;6.53;;;;;;;;;;5075843;28;20084;-73
2023/08/20 05:57:44;;;;;;;7.55;6.85;;;;;;;;;;5076073;28;20058;-72
2023/08/20 06:00:10;;;;;;;7.90;7.18;;;;;;;;;;5073495;28;20035;-72
2023/08/20 06:02:36;;;;;;;9.27;7.35;;;;;;;;;;5045083;28;20351;-70
2023/08/20 06:05:01;;;;;;;8.05;7.30;;;;;;;;;;5058372;28;20100;-71
2023/08/20 06:07:26;;;;;;;8.73;7.82;;;;;;;;;;5059185;28;20036;-71
2023/08/20 06:09:53;;;;;;;9.93;7.20;;;;;;;;;;5053807;28;20032;-74
2023/08/20 06:12:18;;;;;;;7.57;6.85;;;;;;;;;;5062666;28;20331;-72
2023/08/20 06:14:43;;;;;;;9.13;6.78;;;;;;;;;;5055958;28;20089;-73
2023/08/20 06:17:09;;;;;;;7.00;6.40;;;;;;;;;;5056316;28;20490;-73
2023/08/20 06:19:34;;;;;;;7.85;6.80;;;;;;;;;;5056650;28;20032;-73
2023/08/20 06:21:59;;;;;;;7.53;6.88;;;;;;;;;;5053140;28;20035;-71
2023/08/20 06:24:25;;;;;;;7.15;6.40;;;;;;;;;;5053749;28;20116;-71
2023/08/20 06:26:51;;;;;;;7.05;6.35;;;;;;;;;;5052340;28;20123;-71
2023/08/20 06:29:16;;;;;;;7.85;6.22;;;;;;;;;;5041842;28;20024;-72
2023/08/20 06:31:42;;;;;;;9.18;6.63;;;;;;;;;;5054320;28;20377;-71
2023/08/20 06:34:07;;;;;;;7.38;6.68;;;;;;;;;;5064913;28;20031;-72
2023/08/20 06:36:32;;;;;;;7.35;6.57;;;;;;;;;;5064462;28;20372;-70
2023/08/20 06:38:58;;;;;;;7.63;6.82;;;;;;;;;;5064288;28;20040;-71
2023/08/20 06:41:23;;;;;;;23.48;6.95;;;;;;;;;;5062124;28;21137;-70
2023/08/20 06:43:49;;;;;;;8.55;6.95;;;;;;;;;;5062223;28;20091;-69
2023/08/20 06:46:14;;;;;;;7.70;6.80;;;;;;;;;;5067063;28;20083;-69
2023/08/20 06:48:39;;;;;;;7.30;6.65;;;;;;;;;;5069938;28;20086;-72
2023/08/20 06:51:10;;;;;;;13.25;7.15;;;;;;;;;;5059572;28;20028;-69
2023/08/20 06:53:36;;;;;;;7.53;6.25;;;;;;;;;;5065482;28;20348;-68
2023/08/20 06:56:01;;;;;;;8.27;6.75;;;;;;;;;;5054169;28;20027;-68
2023/08/20 06:58:26;;;;;;;7.90;7.15;;;;;;;;;;5072816;28;20113;-68
2023/08/20 07:00:52;;;;;;;8.82;7.45;;;;;;;;;;5072484;28;20055;-68
2023/08/20 07:03:17;;;;;;;7.20;6.55;;;;;;;;;;5073960;28;20131;-72
2023/08/20 07:05:42;;;;;;;8.10;7.05;;;;;;;;;;5072986;28;20024;-72
2023/08/20 07:08:08;;;;;;;10.90;7.35;;;;;;;;;;5060677;28;20051;-72
2023/08/20 07:10:33;;;;;;;11.27;7.50;;;;;;;;;;5051501;28;20036;-70
2023/08/20 07:12:58;;;;;;;7.63;6.88;;;;;;;;;;5052024;28;20481;-72
2023/08/20 07:15:24;;;;;;;8.45;7.60;;;;;;;;;;5052023;28;20035;-70
2023/08/20 07:17:49;;;;;;;9.48;8.02;;;;;;;;;;5054808;28;20032;-71
2023/08/20 07:20:14;;;;;;;11.15;9.32;;;;;;;;;;5044785;28;20035;-70
2023/08/20 07:22:40;;;;;;;18.63;14.48;;;;;;;;;;5060526;28;20421;-72
2023/08/20 07:25:05;;;;;;;13.23;11.05;;;;;;;;;;5066778;28;20086;-72
2023/08/20 07:27:31;;;;;;;10.48;7.25;;;;;;;;;;5070908;28;20355;-71
2023/08/20 07:29:56;;;;;;;7.38;6.38;;;;;;;;;;5073599;28;20027;-72
2023/08/20 07:32:22;;;;;;;11.10;7.50;;;;;;;;;;5069839;28;20037;-72
2023/08/20 07:34:47;;;;;;;8.30;6.97;;;;;;;;;;5064149;28;20025;-70
2023/08/20 07:37:12;;;;;;;11.45;7.70;;;;;;;;;;5072646;28;20362;-72
2023/08/20 07:39:38;;;;;;;9.23;7.95;;;;;;;;;;5066004;28;20025;-71
2023/08/20 07:42:03;;;;;;;8.10;7.13;;;;;;;;;;5076935;28;20060;-70
2023/08/20 07:44:29;;;;;;;12.30;7.88;;;;;;;;;;5075055;28;20063;-70
2023/08/20 07:46:54;;;;;;;8.98;7.57;;;;;;;;;;5074449;28;20048;-70
2023/08/20 07:49:19;;;;;;;10.38;7.28;;;;;;;;;;5072653;28;20858;-70
2023/08/20 07:51:45;;;;;;;8.07;6.93;;;;;;;;;;5072313;28;20043;-71
2023/08/20 07:54:10;;;;;;;9.13;7.85;;;;;;;;;;5072083;28;20035;-70
2023/08/20 07:56:35;;;;;;;8.65;7.80;;;;;;;;;;5073567;28;20401;-72
2023/08/20 07:59:01;;;;;;;10.25;9.20;;;;;;;;;;5077901;28;20024;-71
2023/08/20 08:01:26;;;;;;;9.80;7.35;;;;;;;;;;5072292;28;20028;-72
2023/08/20 08:03:51;;;;;;;8.57;7.68;;;;;;;;;;5053328;28;20024;-72
2023/08/20 08:06:18;;;;;;;11.93;7.53;;;;;;;;;;5057231;28;20024;-72
2023/08/20 08:08:46;;;;;;;15.40;7.57;;;;;;;;;;5071487;28;20048;-71
2023/08/20 08:11:11;;;;;;;14.02;7.82;;;;;;;;;;5069939;28;20028;-72
2023/08/20 08:13:36;;;;;;;13.45;7.72;;;;;;;;;;5076962;28;20421;-72
2023/08/20 08:16:02;;;;;;;9.05;7.82;;;;;;;;;;5075235;28;20023;-73
2023/08/20 08:18:27;;;;;;;11.15;7.50;;;;;;;;;;5060228;28;20036;-72
2023/08/20 08:20:53;;;;;;;10.75;7.20;;;;;;;;;;5075647;28;20110;-71
2023/08/20 08:23:19;;;;;;;8.02;6.90;;;;;;;;;;5075557;28;20027;-70
2023/08/20 08:25:44;;;;;;;11.60;7.47;;;;;;;;;;5074572;28;20032;-70
2023/08/20 08:28:09;;;;;;;10.82;7.97;;;;;;;;;;5069914;28;20350;-72
2023/08/20 08:30:35;;;;;;;8.55;7.72;;;;;;;;;;5075683;28;20024;-70
2023/08/20 08:33:00;;;;;;;11.48;8.60;;;;;;;;;;5068539;28;20034;-70
2023/08/20 08:35:25;;;;;;;9.13;8.07;;;;;;;;;;5065283;28;20097;-71
2023/08/20 08:37:51;;;;;;;13.85;7.25;;;;;;;;;;5064055;28;20375;-73
2023/08/20 08:40:16;;;;;;;9.23;7.20;;;;;;;;;;5051010;28;20028;-72
2023/08/20 08:42:42;;;;;;;9.73;7.43;;;;;;;;;;5068688;28;20351;-70
2023/08/20 08:45:08;;;;;;;10.63;6.88;;;;;;;;;;5066067;28;20484;-68
2023/08/20 08:47:34;;;;;;;10.27;7.57;;;;;;;;;;5071346;28;20060;-72
2023/08/20 08:49:59;;;;;;;12.77;6.85;;;;;;;;;;5076797;28;20056;-70
2023/08/20 08:52:25;;;;;;;8.23;7.20;;;;;;;;;;5074432;28;20109;-70
2023/08/20 08:54:51;;;;;;;9.95;7.13;;;;;;;;;;5067439;28;20019;-69
2023/08/20 08:57:16;;;;;;;7.63;6.90;;;;;;;;;;5070222;28;20048;-71
2023/08/20 08:59:42;;;;;;;9.95;6.97;;;;;;;;;;5066559;28;20106;-72
2023/08/20 09:02:08;;;;;;;8.40;6.80;;;;;;;;;;5065580;28;20029;-70
2023/08/20 09:04:34;;;;;;;7.72;6.93;;;;;;;;;;5064102;28;20336;-72
2023/08/20 09:06:59;;;;;;;7.65;6.30;;;;;;;;;;5062967;28;20050;-70
2023/08/20 09:09:29;;;;;;;7.95;6.47;;;;;;;;;;5064533;28;20032;-71
2023/08/20 09:11:54;;;;;;;8.20;6.68;;;;;;;;;;5071680;28;20031;-71
2023/08/20 09:14:32;;;;;;;9.60;7.15;;;;;;;;;;5073858;28;20450;-71
2023/08/20 09:16:58;;;;;;;9.10;6.28;;;;;;;;;;5059224;28;20020;-71
2023/08/20 09:19:23;;;;;;;9.25;7.05;;;;;;;;;;5061248;28;20106;-71
2023/08/20 09:21:49;;;;;;;8.38;6.35;;;;;;;;;;5061250;28;20027;-71
2023/08/20 09:24:14;;;;;;;8.70;6.30;;;;;;;;;;5062380;28;20020;-70
2023/08/20 09:26:44;;;;;;;7.82;6.35;;;;;;;;;;5049223;28;20413;-72
2023/08/20 09:29:10;;;;;;;7.07;6.38;;;;;;;;;;5066214;28;20107;-71
2023/08/20 09:31:39;;;;;;;6.40;5.40;;;;;;;;;;5069194;28;20020;-71
2023/08/20 09:34:04;;;;;;;8.13;6.50;;;;;;;;;;5056755;28;20382;-72
2023/08/20 09:36:34;;;;;;;12.60;6.07;;;;;;;;;;5064979;28;20028;-72
2023/08/20 09:39:00;;;;;;;8.35;6.22;;;;;;;;;;5070854;28;20406;-72
2023/08/20 09:41:25;;;;;;;7.88;6.40;;;;;;;;;;5068217;28;20028;-71
2023/08/20 09:43:56;;;;;;;9.35;6.05;;;;;;;;;;5072714;28;20024;-70
2023/08/20 09:46:22;;;;;;;10.30;5.82;;;;;;;;;;5068556;28;20124;-71
2023/08/20 09:48:48;;;;;;;6.50;5.60;;;;;;;;;;5071633;28;20599;-70
2023/08/20 09:51:15;;;;;;;10.90;5.97;;;;;;;;;;5065322;28;20048;-71
2023/08/20 09:54:00;;;;;;;11.80;5.60;;;;;;;;;;5058818;28;20173;-69
2023/08/20 09:56:36;;;;;;;7.70;5.43;;;;;;;;;;5073691;28;20020;-71
2023/08/20 09:59:01;;;;;;;7.90;5.30;;;;;;;;;;5071904;28;20734;-70
2023/08/20 10:01:27;;;;;;;10.48;5.32;;;;;;;;;;5073760;28;20016;-70
2023/08/20 10:03:53;;;;;;;11.57;5.70;;;;;;;;;;5069344;28;20070;-69
2023/08/20 10:06:18;;;;;;;6.28;5.00;;;;;;;;;;5073557;28;20398;-71
2023/08/20 10:08:46;;;;;;;6.15;5.57;;;;;;;;;;5073418;28;20031;-71
2023/08/20 10:11:11;;;;;;;7.77;5.47;;;;;;;;;;5076348;28;20032;-70
2023/08/20 10:13:37;;;;;;;10.57;5.90;;;;;;;;;;5064314;28;20601;-70
2023/08/20 10:16:02;;;;;;;7.95;5.88;;;;;;;;;;5075987;28;20032;-69
2023/08/20 10:18:28;;;;;;;7.57;5.32;;;;;;;;;;5066544;28;20044;-71
2023/08/20 10:20:56;;;;;;;6.72;5.90;;;;;;;;;;5070431;28;20435;-70
2023/08/20 10:23:23;;;;;;;10.90;5.95;;;;;;;;;;5066947;28;20070;-70
2023/08/20 10:25:48;;;;;;;7.57;5.60;;;;;;;;;;5063306;28;20032;-70
2023/08/20 10:28:18;;;;;;;8.63;5.35;;;;;;;;;;5063753;28;20038;-72
2023/08/20 10:31:02;;;;;;;8.50;6.03;;;;;;;;;;5065443;28;20347;-71
2023/08/20 10:33:27;;;;;;;7.05;5.40;;;;;;;;;;5074178;28;20028;-70
2023/08/20 10:35:53;;;;;;;5.97;5.47;;;;;;;;;;5058233;28;20092;-69
2023/08/20 10:38:18;;;;;;;6.50;5.22;;;;;;;;;;5073550;28;21253;-71
2023/08/20 10:40:53;;;;;;;5.97;5.38;;;;;;;;;;5043698;28;20059;-71
2023/08/20 10:43:38;;;;;;;7.03;5.47;;;;;;;;;;5059122;28;20463;-69
2023/08/20 10:46:08;;;;;;;7.32;5.38;;;;;;;;;;5051858;28;20423;-69
2023/08/20 10:48:34;;;;;;;6.43;4.93;;;;;;;;;;5052759;28;20032;-69
2023/08/20 10:51:16;;;;;;;8.13;4.72;;;;;;;;;;5064038;28;20060;-72
2023/08/20 10:53:43;;;;;;;17.55;5.90;;;;;;;;;;5070516;28;20244;-71
2023/08/20 10:56:10;;;;;;;6.78;5.32;;;;;;;;;;5073341;28;20034;-71
2023/08/20 10:58:37;;;;;;;6.85;4.80;;;;;;;;;;5070708;28;20036;-72
2023/08/20 11:01:19;;;;;;;9.33;4.93;;;;;;;;;;5061447;28;20028;-72
2023/08/20 11:03:45;;;;;;;6.75;4.70;;;;;;;;;;5068294;28;21124;-70
2023/08/20 11:06:11;;;;;;;7.35;5.05;;;;;;;;;;5071870;28;20578;-72
2023/08/20 11:08:37;;;;;;;16.58;5.80;;;;;;;;;;5065362;28;20080;-71
2023/08/20 11:11:03;;;;;;;6.07;5.55;;;;;;;;;;5071889;28;20059;-72
2023/08/20 11:13:28;;;;;;;7.93;5.22;;;;;;;;;;5072808;28;20055;-72
2023/08/20 11:15:54;;;;;;;7.57;5.30;;;;;;;;;;5075201;28;20035;-70
2023/08/20 11:18:20;;;;;;;11.98;5.00;;;;;;;;;;5072823;28;20028;-71
2023/08/20 11:20:45;;;;;;;5.97;5.13;;;;;;;;;;5074802;28;20044;-72
2023/08/20 11:23:12;;;;;;;5.47;5.03;;;;;;;;;;5061914;28;20033;-71
2023/08/20 11:25:46;;;;;;;7.25;5.32;;;;;;;;;;5069339;28;20039;-69
2023/08/20 11:28:12;;;;;;;5.93;4.72;;;;;;;;;;5066853;28;20363;-71
2023/08/20 11:30:38;;;;;;;8.70;5.60;;;;;;;;;;5062007;28;20017;-73
2023/08/20 11:33:03;;;;;;;5.38;4.88;;;;;;;;;;5065071;28;20032;-72
2023/08/20 11:35:28;;;;;;;6.43;4.80;;;;;;;;;;5068240;28;20017;-73
2023/08/20 11:37:54;;;;;;;6.00;5.03;;;;;;;;;;5073515;28;20491;-71
2023/08/20 11:40:22;;;;;;;5.60;4.43;;;;;;;;;;5065502;28;20078;-73
2023/08/20 11:42:48;;;;;;;5.75;4.97;;;;;;;;;;5053370;28;20512;-71
2023/08/20 11:45:14;;;;;;;6.43;4.80;;;;;;;;;;5062102;28;20418;-74
2023/08/20 11:47:40;;;;;;;5.20;4.78;;;;;;;;;;5061654;28;20106;-76
2023/08/20 11:50:06;;;;;;;7.30;4.90;;;;;;;;;;5062734;28;20016;-77
2023/08/20 11:52:33;;;;;;;5.68;4.70;;;;;;;;;;5057615;28;20287;-72
2023/08/20 11:54:59;;;;;;;5.78;5.05;;;;;;;;;;5063986;28;20431;-72
2023/08/20 11:57:24;;;;;;;6.07;4.65;;;;;;;;;;5072588;28;20035;-74
2023/08/20 11:59:49;;;;;;;8.95;5.05;;;;;;;;;;5067443;28;20046;-75
2023/08/20 12:02:15;;;;;;;4.90;4.40;;;;;;;;;;5061121;28;20355;-71
2023/08/20 12:04:40;;;;;;;7.88;5.00;;;;;;;;;;5057148;28;20038;-74
2023/08/20 12:07:05;;;;;;;5.30;4.63;;;;;;;;;;5074241;28;20427;-72
2023/08/20 12:09:31;;;;;;;5.82;4.82;;;;;;;;;;5074498;28;20037;-74
2023/08/20 12:11:57;;;;;;;7.00;4.38;;;;;;;;;;5069931;28;20035;-71
2023/08/20 12:14:23;;;;;;;5.40;4.57;;;;;;;;;;5066858;28;20077;-72
2023/08/20 12:16:50;;;;;;;5.10;4.53;;;;;;;;;;5070686;28;20123;-71
2023/08/20 12:19:16;;;;;;;7.18;5.15;;;;;;;;;;5073477;28;20036;-74
2023/08/20 12:21:43;;;;;;;5.13;4.55;;;;;;;;;;5076741;28;21078;-73
2023/08/20 12:24:08;;;;;;;5.82;4.40;;;;;;;;;;5066662;28;20024;-73
2023/08/20 12:26:34;;;;;;;5.25;4.22;;;;;;;;;;5062811;28;20039;-77
2023/08/20 12:29:00;;;;;;;6.95;4.32;;;;;;;;;;5063640;28;20151;-76
2023/08/20 12:31:25;;;;;;;4.97;4.13;;;;;;;;;;5059065;28;20036;-76
2023/08/20 12:33:51;;;;;;;4.55;4.15;;;;;;;;;;5063519;28;20443;-74
2023/08/20 12:36:16;;;;;;;4.65;4.22;;;;;;;;;;5064063;28;20028;-76
2023/08/20 12:38:41;;;;;;;7.13;3.88;;;;;;;;;;5044526;28;20035;-72
2023/08/20 12:41:07;;;;;;;5.47;4.60;;;;;;;;;;5042552;28;20033;-76
2023/08/20 12:43:32;;;;;;;8.63;4.28;;;;;;;;;;5061303;28;20020;-74
2023/08/20 12:45:58;;;;;;;5.45;4.30;;;;;;;;;;5060199;28;20048;-73
2023/08/20 12:48:23;;;;;;;5.25;4.45;;;;;;;;;;5060509;28;20032;-74
2023/08/20 12:50:48;;;;;;;5.63;3.90;;;;;;;;;;5063206;28;20024;-75
2023/08/20 12:53:14;;;;;;;6.82;4.63;;;;;;;;;;5065307;28;20473;-75
2023/08/20 12:55:39;;;;;;;9.55;4.13;;;;;;;;;;5064065;28;20027;-76
2023/08/20 12:58:05;;;;;;;5.80;4.65;;;;;;;;;;5064204;28;20115;-73
2023/08/20 13:00:30;;;;;;;4.47;4.15;;;;;;;;;;5065290;28;21121;-73
2023/08/20 13:02:56;;;;;;;5.55;4.60;;;;;;;;;;5063970;28;20048;-73
2023/08/20 13:05:22;;;;;;;5.50;4.70;;;;;;;;;;5064714;28;20024;-74
2023/08/20 13:07:47;;;;;;;5.20;4.70;;;;;;;;;;5064286;28;20040;-73
2023/08/20 13:10:13;;;;;;;5.75;4.50;;;;;;;;;;5064292;28;20059;-75
2023/08/20 13:12:40;;;;;;;7.07;4.32;;;;;;;;;;5064726;28;20442;-73
2023/08/20 13:15:06;;;;;;;8.20;4.88;;;;;;;;;;5060896;28;20038;-74
2023/08/20 13:17:32;;;;;;;5.30;4.72;;;;;;;;;;5063965;28;20071;-73
2023/08/20 13:19:57;;;;;;;6.45;4.72;;;;;;;;;;5063321;28;20028;-75
2023/08/20 13:22:22;;;;;;;6.65;4.43;;;;;;;;;;5059280;28;20032;-73
2023/08/20 13:24:48;;;;;;;6.65;4.38;;;;;;;;;;5064087;28;20040;-76
2023/08/20 13:27:13;;;;;;;5.43;4.55;;;;;;;;;;5059460;28;20029;-75
2023/08/20 13:29:40;;;;;;;7.00;4.57;;;;;;;;;;5063942;28;20024;-76
2023/08/20 13:32:05;;;;;;;5.40;4.90;;;;;;;;;;5061638;28;20035;-75
2023/08/20 13:34:31;;;;;;;6.97;4.07;;;;;;;;;;5062331;28;20020;-75
2023/08/20 13:36:57;;;;;;;5.20;4.38;;;;;;;;;;5064769;28;20016;-75
2023/08/20 13:39:22;;;;;;;8.13;4.50;;;;;;;;;;5063233;28;20051;-75
2023/08/20 13:41:49;;;;;;;4.65;4.22;;;;;;;;;;5064947;28;20350;-74
2023/08/20 13:44:14;;;;;;;5.85;4.32;;;;;;;;;;5062913;28;20470;-75
2023/08/20 13:46:40;;;;;;;7.03;4.53;;;;;;;;;;5062311;28;20040;-72
2023/08/20 13:49:05;;;;;;;5.28;4.75;;;;;;;;;;5064151;28;20439;-75
2023/08/20 13:51:30;;;;;;;6.20;4.85;;;;;;;;;;5063796;28;20480;-75
2023/08/20 13:53:56;;;;;;;6.35;5.28;;;;;;;;;;5066706;28;20023;-73
2023/08/20 13:56:22;;;;;;;5.57;4.28;;;;;;;;;;5063343;28;20020;-72
2023/08/20 13:58:47;;;;;;;5.55;4.38;;;;;;;;;;5063758;28;20432;-76
2023/08/20 14:01:13;;;;;;;11.60;4.65;;;;;;;;;;5053495;28;20028;-74
2023/08/20 14:03:39;;;;;;;4.97;4.50;;;;;;;;;;5043989;28;20104;-73
2023/08/20 14:06:05;;;;;;;6.15;4.90;;;;;;;;;;5048850;28;20916;-71
2023/08/20 14:08:31;;;;;;;8.30;5.10;;;;;;;;;;5054418;28;20124;-74
2023/08/20 14:10:56;;;;;;;5.03;4.53;;;;;;;;;;5050282;28;20019;-72
2023/08/20 14:13:21;;;;;;;6.65;4.78;;;;;;;;;;5054552;28;20020;-74
2023/08/20 14:15:47;;;;;;;6.65;4.45;;;;;;;;;;5060873;28;20451;-73
2023/08/20 14:18:12;;;;;;;6.97;4.85;;;;;;;;;;5072915;28;20588;-74
2023/08/20 14:20:37;;;;;;;5.68;3.67;;;;;;;;;;5073141;28;20360;-72
2023/08/20 14:23:03;;;;;;;5.03;4.53;;;;;;;;;;5063489;28;20029;-76
2023/08/20 14:25:28;;;;;;;4.28;3.97;;;;;;;;;;5062737;28;20032;-73
2023/08/20 14:27:54;;;;;;;4.30;3.90;;;;;;;;;;5063469;28;20035;-75
2023/08/20 14:30:19;;;;;;;4.80;4.30;;;;;;;;;;5062918;28;20451;-72
2023/08/20 14:32:45;;;;;;;7.97;4.68;;;;;;;;;;5062913;28;20024;-72
2023/08/20 14:35:11;;;;;;;4.60;4.20;;;;;;;;;;5061981;28;20031;-73